Time;durP1;ratioP1;P1;durP2;ratioP2;P2;SDS_P1;SDS_P2;PMS_P1;PMS_P2;Temp;Humidity;BMP_temperature;BMP_pressure;BME280_temperature;BME280_humidity;BME280_pressure;Samples;Min_cycle;Max_cycle;Signal;HPM_P1;HPM_P2
2021/11/23 00:01:12;;;;;;;4.50;1.48;;;;;;;;;;4978617;28;20526;-68
2021/11/23 00:03:39;;;;;;;7.15;1.75;;;;;;;;;;4988543;28;20418;-67
2021/11/23 00:06:06;;;;;;;11.65;1.80;;;;;;;;;;4993813;28;20125;-67
2021/11/23 00:08:32;;;;;;;10.80;1.67;;;;;;;;;;4980708;28;20553;-67
2021/11/23 00:10:59;;;;;;;9.52;1.90;;;;;;;;;;4986652;28;20105;-67
2021/11/23 00:13:25;;;;;;;9.88;1.85;;;;;;;;;;4982182;28;20058;-67
2021/11/23 00:15:52;;;;;;;14.23;1.90;;;;;;;;;;4986714;28;20479;-67
2021/11/23 00:18:18;;;;;;;15.45;2.03;;;;;;;;;;4987340;28;20098;-67
2021/11/23 00:20:45;;;;;;;16.33;2.22;;;;;;;;;;4983998;28;20056;-67
2021/11/23 00:23:12;;;;;;;8.85;1.58;;;;;;;;;;4982514;28;20181;-67
2021/11/23 00:25:39;;;;;;;16.40;2.17;;;;;;;;;;4983422;28;20077;-67
2021/11/23 00:28:06;;;;;;;12.48;2.75;;;;;;;;;;4984510;28;20074;-67
2021/11/23 00:30:33;;;;;;;16.25;2.55;;;;;;;;;;4983047;28;20626;-68
2021/11/23 00:32:59;;;;;;;13.45;1.92;;;;;;;;;;4980755;28;20074;-66
2021/11/23 00:35:27;;;;;;;8.27;1.83;;;;;;;;;;4982103;28;20569;-67
2021/11/23 00:37:53;;;;;;;20.77;1.95;;;;;;;;;;4982404;28;20085;-68
2021/11/23 00:40:21;;;;;;;8.27;1.90;;;;;;;;;;4981187;28;20077;-67
2021/11/23 00:42:48;;;;;;;7.28;1.33;;;;;;;;;;4981530;28;20487;-67
2021/11/23 00:45:15;;;;;;;15.13;1.88;;;;;;;;;;4981266;28;20169;-68
2021/11/23 00:47:42;;;;;;;22.70;1.90;;;;;;;;;;4981852;28;20201;-67
2021/11/23 00:50:09;;;;;;;8.30;1.90;;;;;;;;;;4983578;28;20498;-67
2021/11/23 00:52:36;;;;;;;8.35;1.98;;;;;;;;;;4982762;28;20050;-67
2021/11/23 00:55:04;;;;;;;14.20;2.30;;;;;;;;;;4981787;28;20065;-67
2021/11/23 00:57:31;;;;;;;11.88;2.50;;;;;;;;;;4980522;28;20080;-68
2021/11/23 00:59:58;;;;;;;10.52;1.90;;;;;;;;;;4982672;28;20479;-67
2021/11/23 01:02:24;;;;;;;12.50;2.00;;;;;;;;;;4983027;28;20141;-68
2021/11/23 01:04:52;;;;;;;5.22;1.70;;;;;;;;;;4983897;28;20108;-67
2021/11/23 01:07:19;;;;;;;7.68;1.98;;;;;;;;;;4982764;28;20090;-67
2021/11/23 01:09:45;;;;;;;11.38;2.00;;;;;;;;;;4982174;28;20129;-68
2021/11/23 01:12:12;;;;;;;11.27;1.83;;;;;;;;;;4981106;28;20470;-67
2021/11/23 01:14:39;;;;;;;6.27;1.80;;;;;;;;;;4982774;28;20047;-67
2021/11/23 01:17:05;;;;;;;9.48;1.40;;;;;;;;;;4981961;28;20138;-68
2021/11/23 01:19:32;;;;;;;10.70;1.80;;;;;;;;;;4982267;28;20085;-68
2021/11/23 01:21:58;;;;;;;8.60;1.63;;;;;;;;;;4982816;28;20503;-68
2021/11/23 01:24:24;;;;;;;5.57;1.50;;;;;;;;;;4981550;28;20122;-68
2021/11/23 01:26:51;;;;;;;7.38;1.58;;;;;;;;;;4982893;28;20589;-68
2021/11/23 01:29:18;;;;;;;7.47;1.30;;;;;;;;;;4979333;28;20129;-67
2021/11/23 01:31:44;;;;;;;5.60;2.50;;;;;;;;;;4983574;28;20133;-68
2021/11/23 01:34:11;;;;;;;3.53;1.45;;;;;;;;;;4988349;28;20140;-68
2021/11/23 01:36:37;;;;;;;2.53;1.47;;;;;;;;;;5000055;28;20676;-68
2021/11/23 01:39:04;;;;;;;4.15;1.80;;;;;;;;;;5000093;28;20135;-68
2021/11/23 01:41:31;;;;;;;2.08;0.90;;;;;;;;;;5003340;28;20108;-67
2021/11/23 01:43:57;;;;;;;5.40;1.30;;;;;;;;;;4999710;28;20094;-68
2021/11/23 01:46:24;;;;;;;5.10;1.55;;;;;;;;;;5000864;28;20137;-68
2021/11/23 01:48:51;;;;;;;4.20;1.17;;;;;;;;;;5002397;28;20130;-67
2021/11/23 01:51:18;;;;;;;6.10;1.40;;;;;;;;;;5000927;28;20452;-67
2021/11/23 01:53:44;;;;;;;8.02;1.52;;;;;;;;;;5003531;28;20129;-67
2021/11/23 01:56:12;;;;;;;4.80;1.15;;;;;;;;;;5003745;28;20172;-68
2021/11/23 01:58:39;;;;;;;4.95;1.40;;;;;;;;;;5006748;28;20090;-68
2021/11/23 02:01:06;;;;;;;7.32;1.50;;;;;;;;;;5006237;28;20081;-68
2021/11/23 02:03:34;;;;;;;10.40;1.40;;;;;;;;;;5005019;28;20060;-67
2021/11/23 02:06:01;;;;;;;8.05;1.80;;;;;;;;;;5003868;28;20133;-67
2021/11/23 02:08:27;;;;;;;8.87;1.90;;;;;;;;;;5003861;28;20085;-68
2021/11/23 02:10:54;;;;;;;4.10;1.67;;;;;;;;;;5005654;28;20141;-68
2021/11/23 02:13:21;;;;;;;7.40;2.00;;;;;;;;;;5006152;28;20041;-67
2021/11/23 02:15:48;;;;;;;8.20;2.13;;;;;;;;;;5005461;28;20137;-67
2021/11/23 02:18:16;;;;;;;6.57;1.90;;;;;;;;;;4998420;28;20100;-67
2021/11/23 02:20:43;;;;;;;13.77;2.50;;;;;;;;;;5004046;28;20049;-67
2021/11/23 02:23:10;;;;;;;7.55;1.90;;;;;;;;;;5004635;28;20140;-67
2021/11/23 02:25:36;;;;;;;5.65;1.42;;;;;;;;;;5005543;28;20157;-67
2021/11/23 02:28:07;;;;;;;7.13;1.60;;;;;;;;;;5001931;28;20516;-68
2021/11/23 02:30:45;;;;;;;4.90;1.70;;;;;;;;;;5004220;28;20054;-67
2021/11/23 02:33:16;;;;;;;7.30;1.83;;;;;;;;;;5002458;28;20157;-67
2021/11/23 02:35:43;;;;;;;5.63;1.60;;;;;;;;;;5003241;28;20045;-67
2021/11/23 02:38:10;;;;;;;6.05;1.75;;;;;;;;;;5003178;28;20133;-67
2021/11/23 02:40:36;;;;;;;6.63;1.73;;;;;;;;;;5006134;28;20104;-67
2021/11/23 02:43:03;;;;;;;5.03;1.40;;;;;;;;;;5002426;28;20053;-67
2021/11/23 02:45:29;;;;;;;5.40;1.88;;;;;;;;;;5004709;28;20501;-67
2021/11/23 02:47:57;;;;;;;4.75;1.20;;;;;;;;;;5003060;28;20124;-67
2021/11/23 02:50:25;;;;;;;8.38;1.90;;;;;;;;;;5003933;28;20129;-68
2021/11/23 02:52:52;;;;;;;6.28;1.77;;;;;;;;;;5003192;28;20456;-67
2021/11/23 02:55:20;;;;;;;7.38;1.70;;;;;;;;;;5004425;28;20149;-68
2021/11/23 02:57:47;;;;;;;6.72;1.67;;;;;;;;;;5004101;28;20042;-67
2021/11/23 03:00:16;;;;;;;2.13;1.40;;;;;;;;;;5004041;28;20049;-67
2021/11/23 03:02:44;;;;;;;9.32;1.95;;;;;;;;;;5003683;28;20056;-67
2021/11/23 03:05:10;;;;;;;7.38;1.70;;;;;;;;;;5002569;28;20092;-68
2021/11/23 03:07:37;;;;;;;7.25;1.55;;;;;;;;;;5005174;28;20057;-67
2021/11/23 03:10:04;;;;;;;8.43;1.42;;;;;;;;;;5003424;28;20157;-67
2021/11/23 03:12:31;;;;;;;4.53;1.30;;;;;;;;;;5003173;28;20137;-67
2021/11/23 03:14:57;;;;;;;9.07;1.70;;;;;;;;;;5017086;28;20081;-67
2021/11/23 03:17:24;;;;;;;3.95;1.60;;;;;;;;;;5004588;28;20160;-67
2021/11/23 03:19:50;;;;;;;3.55;1.30;;;;;;;;;;5005006;28;20516;-67
2021/11/23 03:22:17;;;;;;;4.45;1.50;;;;;;;;;;5003493;28;20144;-67
2021/11/23 03:24:45;;;;;;;4.80;1.65;;;;;;;;;;5003828;28;20077;-67
2021/11/23 03:27:11;;;;;;;4.70;1.77;;;;;;;;;;5004602;28;20085;-67
2021/11/23 03:29:38;;;;;;;5.05;1.85;;;;;;;;;;5003023;28;20236;-67
2021/11/23 03:32:05;;;;;;;8.05;1.80;;;;;;;;;;5003563;28;20158;-67
2021/11/23 03:34:43;;;;;;;4.18;1.50;;;;;;;;;;4993394;28;20061;-68
2021/11/23 03:37:12;;;;;;;6.38;1.58;;;;;;;;;;4983667;28;20076;-67
2021/11/23 03:39:39;;;;;;;11.27;1.98;;;;;;;;;;4981375;28;20137;-67
2021/11/23 03:42:06;;;;;;;5.35;1.75;;;;;;;;;;4982278;28;20077;-67
2021/11/23 03:44:35;;;;;;;4.93;1.73;;;;;;;;;;4985163;28;20050;-67
2021/11/23 03:47:02;;;;;;;6.43;1.60;;;;;;;;;;4981907;28;20057;-67
2021/11/23 03:49:28;;;;;;;7.38;1.88;;;;;;;;;;4982475;28;20078;-67
2021/11/23 03:51:56;;;;;;;11.07;2.00;;;;;;;;;;4984061;28;20045;-67
2021/11/23 03:54:23;;;;;;;5.75;1.77;;;;;;;;;;4982556;28;20133;-67
2021/11/23 03:56:51;;;;;;;8.40;2.22;;;;;;;;;;4982912;28;20109;-68
2021/11/23 03:59:18;;;;;;;9.77;2.10;;;;;;;;;;4982953;28;20133;-67
2021/11/23 04:01:45;;;;;;;4.18;1.80;;;;;;;;;;4985841;28;20137;-67
2021/11/23 04:04:12;;;;;;;5.88;1.80;;;;;;;;;;4983641;28;20133;-67
2021/11/23 04:06:39;;;;;;;2.97;1.52;;;;;;;;;;4983628;28;20125;-67
2021/11/23 04:09:06;;;;;;;8.20;1.88;;;;;;;;;;4982459;28;20123;-68
2021/11/23 04:11:32;;;;;;;5.45;1.45;;;;;;;;;;4981965;28;20738;-67
2021/11/23 04:13:59;;;;;;;3.63;1.73;;;;;;;;;;4986302;28;20161;-67
2021/11/23 04:16:26;;;;;;;6.78;1.65;;;;;;;;;;4980807;28;20142;-67
2021/11/23 04:18:53;;;;;;;4.00;1.33;;;;;;;;;;4984381;28;20141;-66
2021/11/23 04:21:20;;;;;;;5.25;1.98;;;;;;;;;;4982173;28;20154;-66
2021/11/23 04:23:46;;;;;;;10.68;2.47;;;;;;;;;;4982697;28;20089;-67
2021/11/23 04:26:13;;;;;;;4.03;1.55;;;;;;;;;;4964312;28;20073;-66
2021/11/23 04:28:40;;;;;;;8.85;1.92;;;;;;;;;;4983817;28;20047;-66
2021/11/23 04:31:07;;;;;;;3.55;1.20;;;;;;;;;;4981061;28;20070;-66
2021/11/23 04:33:34;;;;;;;3.35;1.63;;;;;;;;;;4985452;28;20082;-67
2021/11/23 04:36:03;;;;;;;7.13;1.63;;;;;;;;;;5004329;28;20053;-67
2021/11/23 04:38:29;;;;;;;6.18;1.88;;;;;;;;;;5001882;28;20137;-67
2021/11/23 04:40:56;;;;;;;4.78;1.70;;;;;;;;;;4999998;28;20589;-67
2021/11/23 04:43:23;;;;;;;3.85;1.27;;;;;;;;;;5000883;28;20057;-67
2021/11/23 04:45:50;;;;;;;4.10;1.60;;;;;;;;;;5003757;28;20088;-66
2021/11/23 04:48:16;;;;;;;3.03;1.20;;;;;;;;;;5000975;28;20078;-67
2021/11/23 04:50:43;;;;;;;9.15;2.08;;;;;;;;;;5000470;28;20070;-66
2021/11/23 04:53:10;;;;;;;5.35;1.90;;;;;;;;;;5001199;28;20157;-67
2021/11/23 04:55:36;;;;;;;3.78;1.42;;;;;;;;;;5002189;28;20133;-66
2021/11/23 04:58:03;;;;;;;4.43;1.40;;;;;;;;;;5000697;28;20157;-67
2021/11/23 05:00:29;;;;;;;10.20;1.75;;;;;;;;;;5002620;28;20553;-66
2021/11/23 05:02:56;;;;;;;2.67;1.20;;;;;;;;;;5000587;28;20057;-67
2021/11/23 05:05:24;;;;;;;4.82;1.17;;;;;;;;;;5002884;28;20050;-67
2021/11/23 05:07:50;;;;;;;;;;;;;;;;;;5007345;28;20073;-67
2021/11/23 05:10:16;;;;;;;3.63;1.67;;;;;;;;;;5009186;28;19922;-67
2021/11/23 05:12:43;;;;;;;3.70;2.17;;;;;;;;;;5002608;28;20117;-67
2021/11/23 05:15:10;;;;;;;5.05;2.10;;;;;;;;;;5003790;28;20136;-66
2021/11/23 05:17:37;;;;;;;7.03;2.78;;;;;;;;;;5004599;28;20562;-67
2021/11/23 05:20:05;;;;;;;4.45;1.90;;;;;;;;;;5004017;28;20161;-67
2021/11/23 05:22:31;;;;;;;6.47;1.90;;;;;;;;;;5004304;28;20049;-66
2021/11/23 05:24:59;;;;;;;2.80;1.67;;;;;;;;;;5000811;28;20549;-66
2021/11/23 05:27:26;;;;;;;9.00;1.90;;;;;;;;;;5001975;28;20148;-66
2021/11/23 05:29:52;;;;;;;6.53;1.85;;;;;;;;;;5003606;28;20076;-68
2021/11/23 05:32:19;;;;;;;5.43;1.90;;;;;;;;;;4998790;28;20082;-67
2021/11/23 05:34:46;;;;;;;6.05;1.85;;;;;;;;;;4987650;28;20054;-67
2021/11/23 05:37:12;;;;;;;7.47;1.77;;;;;;;;;;4981927;28;20129;-67
2021/11/23 05:39:38;;;;;;;6.97;2.17;;;;;;;;;;4983209;28;20129;-67
2021/11/23 05:42:05;;;;;;;4.63;1.88;;;;;;;;;;4980511;28;20138;-68
2021/11/23 05:44:32;;;;;;;5.93;2.42;;;;;;;;;;4980663;28;20435;-67
2021/11/23 05:46:59;;;;;;;8.95;2.20;;;;;;;;;;4980691;28;20086;-67
2021/11/23 05:49:26;;;;;;;7.57;2.20;;;;;;;;;;4981074;28;20060;-67
2021/11/23 05:51:54;;;;;;;7.10;2.30;;;;;;;;;;4980064;28;20128;-68
2021/11/23 05:54:21;;;;;;;3.63;2.00;;;;;;;;;;4967597;28;20439;-67
2021/11/23 05:56:48;;;;;;;5.82;2.25;;;;;;;;;;4981034;28;20130;-67
2021/11/23 05:59:14;;;;;;;3.72;1.80;;;;;;;;;;4979400;28;20144;-67
2021/11/23 06:01:41;;;;;;;5.00;1.85;;;;;;;;;;4976558;28;20142;-67
2021/11/23 06:04:08;;;;;;;4.90;1.73;;;;;;;;;;4978996;28;20421;-66
2021/11/23 06:06:35;;;;;;;6.75;1.83;;;;;;;;;;4979484;28;20078;-67
2021/11/23 06:09:05;;;;;;;4.63;1.88;;;;;;;;;;4979645;28;20133;-67
2021/11/23 06:11:32;;;;;;;4.15;1.90;;;;;;;;;;4977668;28;20129;-67
2021/11/23 06:13:59;;;;;;;5.97;2.10;;;;;;;;;;4980488;28;20133;-67
2021/11/23 06:16:26;;;;;;;4.50;1.90;;;;;;;;;;4980252;28;20129;-67
2021/11/23 06:18:53;;;;;;;4.75;1.80;;;;;;;;;;4982798;28;20514;-67
2021/11/23 06:21:20;;;;;;;6.28;1.90;;;;;;;;;;4979027;28;20074;-67
2021/11/23 06:23:48;;;;;;;5.90;2.30;;;;;;;;;;4973676;28;20047;-67
2021/11/23 06:26:14;;;;;;;;;;;;;;;;;;4965438;28;20101;-67
2021/11/23 06:28:40;;;;;;;5.38;1.75;;;;;;;;;;4979139;28;20646;-67
2021/11/23 06:31:07;;;;;;;4.60;1.90;;;;;;;;;;4977740;28;20126;-68
2021/11/23 06:33:34;;;;;;;3.20;2.03;;;;;;;;;;4976531;28;20148;-67
2021/11/23 06:36:00;;;;;;;10.23;2.03;;;;;;;;;;4978001;28;20039;-67
2021/11/23 06:38:27;;;;;;;3.50;1.70;;;;;;;;;;4979323;28;20061;-67
2021/11/23 06:40:53;;;;;;;5.00;1.47;;;;;;;;;;4982431;28;20149;-67
2021/11/23 06:43:19;;;;;;;4.97;2.05;;;;;;;;;;4981851;28;20341;-67
2021/11/23 06:45:46;;;;;;;5.28;1.80;;;;;;;;;;4982568;28;20108;-67
2021/11/23 06:48:13;;;;;;;10.77;2.45;;;;;;;;;;4982643;28;20054;-66
2021/11/23 06:50:40;;;;;;;2.65;1.50;;;;;;;;;;4981730;28;20491;-67
2021/11/23 06:53:07;;;;;;;5.30;1.83;;;;;;;;;;4981477;28;20474;-67
2021/11/23 06:55:35;;;;;;;6.88;1.85;;;;;;;;;;4980967;28;20077;-67
2021/11/23 06:58:01;;;;;;;7.28;1.77;;;;;;;;;;4981662;28;20133;-67
2021/11/23 07:00:28;;;;;;;3.55;1.77;;;;;;;;;;4982467;28;20327;-67
2021/11/23 07:02:55;;;;;;;5.40;1.70;;;;;;;;;;4980534;28;20146;-67
2021/11/23 07:05:21;;;;;;;5.45;2.10;;;;;;;;;;4982284;28;20077;-67
2021/11/23 07:07:48;;;;;;;4.90;1.95;;;;;;;;;;4980840;28;20081;-67
2021/11/23 07:10:15;;;;;;;7.45;1.83;;;;;;;;;;4981123;28;20129;-67
2021/11/23 07:12:58;;;;;;;5.45;1.75;;;;;;;;;;4982358;28;20050;-67
2021/11/23 07:15:25;;;;;;;6.10;2.45;;;;;;;;;;4978594;28;20511;-67
2021/11/23 07:17:51;;;;;;;4.63;1.95;;;;;;;;;;4979302;28;20141;-67
2021/11/23 07:20:18;;;;;;;6.87;1.50;;;;;;;;;;4976547;28;20142;-67
2021/11/23 07:22:45;;;;;;;3.83;1.70;;;;;;;;;;4989549;28;20117;-67
2021/11/23 07:25:12;;;;;;;6.70;1.80;;;;;;;;;;4984266;28;20138;-66
2021/11/23 07:27:39;;;;;;;5.97;2.00;;;;;;;;;;4979810;28;20081;-67
2021/11/23 07:30:06;;;;;;;8.60;2.15;;;;;;;;;;4982077;28;20392;-67
2021/11/23 07:32:32;;;;;;;4.80;1.35;;;;;;;;;;4981172;28;20128;-67
2021/11/23 07:34:59;;;;;;;6.10;2.08;;;;;;;;;;4979387;28;20152;-67
2021/11/23 07:37:30;;;;;;;4.88;1.90;;;;;;;;;;4983589;28;20129;-67
2021/11/23 07:39:56;;;;;;;5.00;1.90;;;;;;;;;;4979077;28;20062;-67
2021/11/23 07:42:23;;;;;;;3.65;1.60;;;;;;;;;;4985551;28;20066;-66
2021/11/23 07:44:49;;;;;;;11.30;2.15;;;;;;;;;;4986053;28;20221;-67
2021/11/23 07:47:16;;;;;;;2.45;1.67;;;;;;;;;;4980240;28;20080;-67
2021/11/23 07:49:42;;;;;;;4.72;2.05;;;;;;;;;;4984224;28;20054;-67
2021/11/23 07:52:09;;;;;;;3.22;1.48;;;;;;;;;;4982597;28;20141;-67
2021/11/23 07:54:36;;;;;;;8.30;1.90;;;;;;;;;;4978673;28;20088;-67
2021/11/23 07:57:02;;;;;;;4.53;2.25;;;;;;;;;;4983153;28;20137;-68
2021/11/23 07:59:30;;;;;;;5.68;2.08;;;;;;;;;;4986806;28;20105;-67
2021/11/23 08:01:56;;;;;;;5.50;1.75;;;;;;;;;;4985532;28;20134;-67
2021/11/23 08:04:23;;;;;;;4.57;1.90;;;;;;;;;;4986497;28;20082;-67
2021/11/23 08:06:50;;;;;;;7.03;2.38;;;;;;;;;;4970516;28;20613;-67
2021/11/23 08:09:16;;;;;;;7.57;2.40;;;;;;;;;;4975550;28;20074;-67
2021/11/23 08:11:46;;;;;;;10.27;2.42;;;;;;;;;;4980350;28;20098;-67
2021/11/23 08:14:13;;;;;;;5.03;1.95;;;;;;;;;;4981524;28;20133;-67
2021/11/23 08:16:39;;;;;;;7.07;2.38;;;;;;;;;;4983889;28;20145;-67
2021/11/23 08:19:08;;;;;;;8.82;2.58;;;;;;;;;;4988934;28;20054;-67
2021/11/23 08:21:35;;;;;;;4.35;1.90;;;;;;;;;;4985424;28;20053;-67
2021/11/23 08:24:02;;;;;;;7.05;2.92;;;;;;;;;;4986136;28;20083;-67
2021/11/23 08:26:28;;;;;;;10.23;2.92;;;;;;;;;;4985029;28;20104;-67
2021/11/23 08:28:55;;;;;;;6.85;2.42;;;;;;;;;;4987206;28;20490;-67
2021/11/23 08:31:22;;;;;;;8.43;3.30;;;;;;;;;;4987067;28;20081;-67
2021/11/23 08:33:48;;;;;;;9.07;3.75;;;;;;;;;;4981406;28;20050;-66
2021/11/23 08:36:15;;;;;;;11.77;3.72;;;;;;;;;;4980936;28;20070;-67
2021/11/23 08:38:42;;;;;;;8.23;3.65;;;;;;;;;;4982036;28;20092;-67
2021/11/23 08:41:10;;;;;;;11.10;3.17;;;;;;;;;;4990502;28;20131;-67
2021/11/23 08:43:39;;;;;;;7.50;3.22;;;;;;;;;;4981937;28;20078;-67
2021/11/23 08:46:06;;;;;;;6.32;2.95;;;;;;;;;;4985364;28;20069;-67
2021/11/23 08:48:34;;;;;;;10.73;3.13;;;;;;;;;;4982873;28;20051;-67
2021/11/23 08:51:03;;;;;;;6.55;2.88;;;;;;;;;;4982836;28;20085;-67
2021/11/23 08:53:29;;;;;;;6.38;3.03;;;;;;;;;;4984910;28;20477;-67
2021/11/23 08:55:56;;;;;;;6.60;3.00;;;;;;;;;;4983518;28;20499;-67
2021/11/23 08:58:22;;;;;;;12.10;3.28;;;;;;;;;;4982583;28;20046;-67
2021/11/23 09:00:49;;;;;;;7.22;3.20;;;;;;;;;;4984822;28;20116;-67
2021/11/23 09:03:16;;;;;;;6.68;2.90;;;;;;;;;;4986756;28;20057;-67
2021/11/23 09:05:44;;;;;;;5.45;2.25;;;;;;;;;;4983728;28;20070;-67
2021/11/23 09:08:11;;;;;;;9.27;3.65;;;;;;;;;;4982518;28;20132;-67
2021/11/23 09:10:39;;;;;;;7.03;2.88;;;;;;;;;;4982557;28;20471;-67
2021/11/23 09:13:06;;;;;;;7.93;3.17;;;;;;;;;;4982743;28;20105;-67
2021/11/23 09:15:33;;;;;;;6.15;3.08;;;;;;;;;;4984667;28;20096;-67
2021/11/23 09:18:01;;;;;;;9.10;3.10;;;;;;;;;;4970082;28;20531;-67
2021/11/23 09:20:35;;;;;;;7.63;3.08;;;;;;;;;;4987468;28;20100;-67
2021/11/23 09:23:07;;;;;;;6.72;3.30;;;;;;;;;;4987132;28;20084;-67
2021/11/23 09:25:35;;;;;;;13.52;2.90;;;;;;;;;;4981792;28;20054;-67
2021/11/23 09:28:03;;;;;;;9.48;2.92;;;;;;;;;;4982852;28;20047;-67
2021/11/23 09:30:29;;;;;;;;;;;;;;;;;;4981342;28;20132;-67
2021/11/23 09:32:57;;;;;;;10.73;3.35;;;;;;;;;;4978441;28;19976;-68
2021/11/23 09:35:23;;;;;;;;;;;;;;;;;;4999271;28;20145;-67
2021/11/23 09:37:50;;;;;;;9.60;2.78;;;;;;;;;;5004933;28;19979;-67
2021/11/23 09:40:18;;;;;;;6.72;2.50;;;;;;;;;;5003510;28;20130;-68
2021/11/23 09:42:46;;;;;;;8.25;2.75;;;;;;;;;;5003280;28;20096;-68
2021/11/23 09:45:12;;;;;;;14.10;3.20;;;;;;;;;;4999575;28;20144;-68
2021/11/23 09:47:39;;;;;;;11.27;2.40;;;;;;;;;;5000230;28;20540;-68
2021/11/23 09:50:06;;;;;;;6.97;3.08;;;;;;;;;;4997450;28;20743;-68
2021/11/23 09:52:33;;;;;;;6.07;2.60;;;;;;;;;;4992462;28;20125;-68
2021/11/23 09:55:00;;;;;;;4.88;2.55;;;;;;;;;;4999218;28;20325;-68
2021/11/23 09:57:26;;;;;;;9.00;2.60;;;;;;;;;;5004770;28;20111;-67
2021/11/23 09:59:52;;;;;;;6.18;2.30;;;;;;;;;;5005513;28;20463;-67
2021/11/23 10:02:24;;;;;;;5.97;2.58;;;;;;;;;;5005102;28;20081;-67
2021/11/23 10:05:01;;;;;;;3.97;2.30;;;;;;;;;;5003254;28;20085;-68
2021/11/23 10:07:36;;;;;;;7.07;2.28;;;;;;;;;;5001932;28;20078;-67
2021/11/23 10:10:27;;;;;;;5.38;2.10;;;;;;;;;;5001973;28;20084;-67
2021/11/23 10:12:55;;;;;;;7.00;2.40;;;;;;;;;;4998136;28;20085;-68
2021/11/23 10:15:26;;;;;;;13.27;2.30;;;;;;;;;;4999875;28;20315;-68
2021/11/23 10:17:54;;;;;;;6.57;2.67;;;;;;;;;;4991751;28;20525;-68
2021/11/23 10:20:25;;;;;;;5.85;2.10;;;;;;;;;;5005164;28;20073;-68
2021/11/23 10:22:52;;;;;;;5.13;2.08;;;;;;;;;;5008161;28;20533;-68
2021/11/23 10:25:18;;;;;;;7.47;2.20;;;;;;;;;;4993699;28;20148;-68
2021/11/23 10:27:45;;;;;;;5.28;2.08;;;;;;;;;;5002690;28;20337;-68
2021/11/23 10:30:12;;;;;;;8.55;2.45;;;;;;;;;;5004129;28;20137;-68
2021/11/23 10:32:48;;;;;;;14.82;3.13;;;;;;;;;;5003499;28;20074;-67
2021/11/23 10:35:19;;;;;;;5.85;2.03;;;;;;;;;;4993736;28;20058;-68
2021/11/23 10:37:46;;;;;;;6.45;2.33;;;;;;;;;;4999369;28;20125;-68
2021/11/23 10:40:17;;;;;;;9.43;2.03;;;;;;;;;;5001784;28;20481;-68
2021/11/23 10:42:45;;;;;;;8.07;2.25;;;;;;;;;;5008355;28;20069;-68
2021/11/23 10:45:11;;;;;;;;;;;;;;;;;;4998847;28;20137;-68
2021/11/23 10:47:38;;;;;;;3.55;2.08;;;;;;;;;;5003425;28;19969;-67
2021/11/23 10:50:05;;;;;;;;;;;;;;;;;;5000749;28;20070;-67
2021/11/23 10:52:34;;;;;;;7.53;2.38;;;;;;;;;;5002811;28;19983;-68
2021/11/23 10:55:01;;;;;;;8.27;2.30;;;;;;;;;;5004492;28;20117;-68
2021/11/23 10:57:35;;;;;;;6.45;2.72;;;;;;;;;;5006446;28;20462;-67
2021/11/23 11:00:02;;;;;;;5.38;2.60;;;;;;;;;;5005329;28;20081;-67
2021/11/23 11:02:29;;;;;;;11.93;2.40;;;;;;;;;;5004145;28;20077;-67
2021/11/23 11:04:56;;;;;;;4.68;1.63;;;;;;;;;;5001132;28;20112;-67
2021/11/23 11:07:24;;;;;;;8.70;2.33;;;;;;;;;;5001579;28;20145;-67
2021/11/23 11:09:52;;;;;;;9.35;3.00;;;;;;;;;;4996838;28;20097;-68
2021/11/23 11:12:19;;;;;;;7.60;2.42;;;;;;;;;;4998542;28;20203;-68
2021/11/23 11:14:48;;;;;;;8.02;2.53;;;;;;;;;;5001490;28;20050;-68
2021/11/23 11:17:15;;;;;;;10.98;2.47;;;;;;;;;;5004003;28;20121;-68
2021/11/23 11:19:47;;;;;;;13.18;2.70;;;;;;;;;;5002533;28;20111;-68
2021/11/23 11:22:15;;;;;;;7.88;3.22;;;;;;;;;;5006081;28;20050;-67
2021/11/23 11:24:54;;;;;;;9.52;2.78;;;;;;;;;;5005537;28;20092;-68
2021/11/23 11:27:36;;;;;;;8.45;2.63;;;;;;;;;;5006730;28;20133;-68
2021/11/23 11:30:21;;;;;;;9.23;2.78;;;;;;;;;;5001194;28;20062;-68
2021/11/23 11:33:08;;;;;;;7.18;2.65;;;;;;;;;;5000292;28;20081;-68
2021/11/23 11:35:40;;;;;;;9.30;2.97;;;;;;;;;;4994090;28;20081;-68
2021/11/23 11:38:26;;;;;;;9.88;2.97;;;;;;;;;;5002699;28;20134;-68
2021/11/23 11:40:54;;;;;;;7.90;3.22;;;;;;;;;;5006692;28;20077;-69
2021/11/23 11:43:21;;;;;;;11.20;3.75;;;;;;;;;;5004805;28;20081;-68
2021/11/23 11:45:47;;;;;;;3.95;1.85;;;;;;;;;;5003694;28;20824;-68
2021/11/23 11:51:27;;;;;;;8.07;2.60;;;;;;;;;;5006177;28;20090;-69
2021/11/23 11:53:55;;;;;;;9.02;3.13;;;;;;;;;;5001743;28;20085;-69
2021/11/23 11:56:34;;;;;;;7.38;2.38;;;;;;;;;;5001137;28;20085;-69
2021/11/23 11:59:01;;;;;;;8.25;3.03;;;;;;;;;;5005949;28;20130;-69
2021/11/23 12:01:33;;;;;;;18.27;3.47;;;;;;;;;;4999890;28;20960;-69
2021/11/23 12:04:01;;;;;;;9.27;3.20;;;;;;;;;;4995908;28;20050;-69
2021/11/23 12:06:46;;;;;;;15.98;3.22;;;;;;;;;;5005299;28;20081;-69
2021/11/23 12:09:33;;;;;;;6.20;3.03;;;;;;;;;;5000345;28;20089;-69
2021/11/23 12:12:09;;;;;;;12.90;3.20;;;;;;;;;;5003802;28;20058;-69
2021/11/23 12:14:51;;;;;;;14.98;3.45;;;;;;;;;;5004409;28;20133;-69
2021/11/23 12:17:24;;;;;;;9.98;3.15;;;;;;;;;;5006474;28;20119;-69
2021/11/23 12:20:07;;;;;;;7.25;3.20;;;;;;;;;;5010022;28;20093;-69
2021/11/23 12:22:41;;;;;;;13.05;3.97;;;;;;;;;;5004411;28;20433;-69
2021/11/23 12:25:11;;;;;;;18.58;3.88;;;;;;;;;;5001455;28;20159;-69
2021/11/23 12:27:42;;;;;;;10.32;3.08;;;;;;;;;;4998016;28;20049;-69
2021/11/23 12:30:09;;;;;;;7.30;2.70;;;;;;;;;;5001042;28;20089;-69
2021/11/23 12:32:37;;;;;;;6.80;2.55;;;;;;;;;;4999495;28;20525;-69
2021/11/23 12:35:05;;;;;;;11.23;2.78;;;;;;;;;;5004193;28;20093;-69
2021/11/23 12:37:32;;;;;;;10.35;2.67;;;;;;;;;;5004563;28;20049;-69
2021/11/23 12:40:09;;;;;;;8.40;3.10;;;;;;;;;;5004943;28;20056;-69
2021/11/23 12:42:40;;;;;;;9.10;3.08;;;;;;;;;;5005829;28;21078;-69
2021/11/23 12:45:07;;;;;;;5.97;3.00;;;;;;;;;;5002728;28;20137;-70
2021/11/23 12:47:34;;;;;;;10.35;3.00;;;;;;;;;;5001090;28;20049;-69
2021/11/23 12:50:01;;;;;;;;;;;;;;;;;;5002039;28;20555;-69
2021/11/23 12:52:30;;;;;;;7.07;2.53;;;;;;;;;;5008333;28;19925;-69
2021/11/23 12:54:57;;;;;;;8.05;2.95;;;;;;;;;;5000444;28;20045;-69
2021/11/23 12:57:25;;;;;;;10.77;3.33;;;;;;;;;;5004542;28;20494;-69
2021/11/23 12:59:52;;;;;;;6.05;2.45;;;;;;;;;;5003184;28;20074;-69
2021/11/23 13:02:28;;;;;;;11.60;2.88;;;;;;;;;;5004947;28;20085;-69
2021/11/23 13:04:57;;;;;;;12.63;3.03;;;;;;;;;;5001366;28;20050;-69
2021/11/23 13:07:24;;;;;;;8.30;2.63;;;;;;;;;;5004382;28;20046;-69
2021/11/23 13:09:54;;;;;;;6.10;3.00;;;;;;;;;;5004355;28;20494;-69
2021/11/23 13:12:25;;;;;;;6.72;2.85;;;;;;;;;;4996666;28;20069;-69
2021/11/23 13:14:53;;;;;;;7.75;3.05;;;;;;;;;;4997043;28;20594;-69
2021/11/23 13:17:39;;;;;;;10.70;3.10;;;;;;;;;;4999460;28;20050;-69
2021/11/23 13:20:06;;;;;;;17.33;3.00;;;;;;;;;;4996672;28;20077;-69
2021/11/23 13:22:40;;;;;;;11.20;2.88;;;;;;;;;;5000776;28;20085;-69
2021/11/23 13:25:12;;;;;;;9.07;2.55;;;;;;;;;;5000380;28;20060;-70
2021/11/23 13:27:38;;;;;;;7.78;2.75;;;;;;;;;;5000334;28;20125;-69
2021/11/23 13:30:28;;;;;;;9.40;3.17;;;;;;;;;;4999687;28;20156;-69
2021/11/23 13:33:09;;;;;;;10.57;2.92;;;;;;;;;;5001625;28;20052;-69
2021/11/23 13:35:50;;;;;;;5.35;2.60;;;;;;;;;;5001037;28;20097;-69
2021/11/23 13:38:34;;;;;;;8.85;3.08;;;;;;;;;;5005446;28;20136;-69
2021/11/23 13:41:07;;;;;;;6.20;2.50;;;;;;;;;;5003671;28;20133;-69
2021/11/23 13:43:48;;;;;;;7.35;2.80;;;;;;;;;;4999906;28;20073;-69
2021/11/23 13:46:16;;;;;;;13.85;3.05;;;;;;;;;;4994870;28;20156;-69
2021/11/23 13:48:43;;;;;;;9.95;3.00;;;;;;;;;;4997267;28;20042;-69
2021/11/23 13:51:13;;;;;;;4.60;2.30;;;;;;;;;;5006183;28;20440;-69
2021/11/23 13:53:59;;;;;;;8.20;2.40;;;;;;;;;;5009716;28;20125;-69
2021/11/23 13:56:28;;;;;;;10.50;3.10;;;;;;;;;;5005482;28;20081;-69
2021/11/23 13:58:56;;;;;;;9.68;3.08;;;;;;;;;;5008296;28;20092;-69
2021/11/23 14:01:23;;;;;;;4.72;2.60;;;;;;;;;;5009437;28;20046;-69
2021/11/23 14:03:50;;;;;;;;;;;;;;;;;;5006829;28;20054;-69
2021/11/23 14:06:16;;;;;;;5.85;2.40;;;;;;;;;;5011137;28;19964;-69
2021/11/23 14:08:43;;;;;;;7.90;2.97;;;;;;;;;;4998466;28;20038;-69
2021/11/23 14:11:12;;;;;;;7.10;2.58;;;;;;;;;;5003085;28;20146;-69
2021/11/23 14:13:39;;;;;;;9.52;2.78;;;;;;;;;;5008556;28;20600;-69
2021/11/23 14:16:05;;;;;;;9.25;2.40;;;;;;;;;;5003753;28;20046;-69
2021/11/23 14:18:32;;;;;;;9.70;2.70;;;;;;;;;;5008816;28;20081;-69
2021/11/23 14:21:11;;;;;;;8.45;2.50;;;;;;;;;;5005056;28;20046;-69
2021/11/23 14:23:47;;;;;;;6.90;2.55;;;;;;;;;;5007479;28;20082;-69
2021/11/23 14:26:24;;;;;;;4.25;1.85;;;;;;;;;;5008511;28;20506;-69
2021/11/23 14:28:55;;;;;;;8.43;2.65;;;;;;;;;;5003825;28;20141;-69
2021/11/23 14:31:24;;;;;;;9.05;2.28;;;;;;;;;;5008605;28;20092;-69
2021/11/23 14:33:54;;;;;;;5.85;2.20;;;;;;;;;;5006680;28;20074;-69
2021/11/23 14:36:31;;;;;;;6.50;2.45;;;;;;;;;;5002571;28;20145;-69
2021/11/23 14:38:59;;;;;;;12.23;2.50;;;;;;;;;;5002674;28;20552;-69
2021/11/23 14:41:26;;;;;;;10.40;2.65;;;;;;;;;;5003574;28;20085;-69
2021/11/23 14:43:53;;;;;;;9.07;2.45;;;;;;;;;;5000071;28;20145;-69
2021/11/23 14:46:19;;;;;;;5.38;2.50;;;;;;;;;;4991706;28;20088;-69
2021/11/23 14:48:47;;;;;;;5.93;2.88;;;;;;;;;;5007720;28;20052;-69
2021/11/23 14:51:24;;;;;;;11.63;2.60;;;;;;;;;;5005386;28;20051;-69
2021/11/23 14:53:52;;;;;;;10.77;3.20;;;;;;;;;;5000853;28;20082;-69